Time;durP1;ratioP1;P1;durP2;ratioP2;P2;SDS_P1;SDS_P2;PMS_P1;PMS_P2;Temp;Humidity;BMP_temperature;BMP_pressure;BME280_temperature;BME280_humidity;BME280_pressure;Samples;Min_cycle;Max_cycle;Signal;HPM_P1;HPM_P2
2023/01/15 00:01:45;;;;;;;;;;;15.00;57.80;;;;;;5112838;28;20285;-70
2023/01/15 00:04:11;;;;;;;;;;;15.00;57.80;;;;;;5128745;27;19931;-70
2023/01/15 00:06:38;;;;;;;;;;;15.00;57.80;;;;;;5091084;28;20087;-70
2023/01/15 00:09:04;;;;;;;;;;;15.00;57.80;;;;;;5091121;28;19927;-70
2023/01/15 00:11:30;;;;;;;;;;;15.00;57.80;;;;;;5092347;28;20298;-71
2023/01/15 00:13:55;;;;;;;;;;;15.10;57.80;;;;;;5125441;28;19931;-70
2023/01/15 00:16:22;;;;;;;;;;;15.00;57.80;;;;;;5091049;28;20450;-71
2023/01/15 00:18:53;;;;;;;;;;;15.00;57.80;;;;;;5091375;28;19920;-71
2023/01/15 00:21:20;;;;;;;;;;;15.00;57.80;;;;;;5092557;28;19927;-71
2023/01/15 00:29:17;;;;;;;;;;;14.90;57.70;;;;;;5095111;28;19920;-71
2023/01/15 00:31:49;;;;;;;;;;;15.00;57.70;;;;;;5094972;28;19927;-70
2023/01/15 00:34:14;;;;;;;;;;;15.00;57.70;;;;;;5074877;28;19920;-69
2023/01/15 00:36:40;;;;;;;;;;;15.00;57.60;;;;;;5108747;28;19934;-70
2023/01/15 00:39:05;;;;;;;;;;;15.00;57.70;;;;;;5075975;28;19991;-70
2023/01/15 00:41:31;;;;;;;;;;;15.00;57.70;;;;;;5074620;28;20007;-70
2023/01/15 00:43:56;;;;;;;;;;;15.00;57.70;;;;;;5074880;28;19920;-71
2023/01/15 00:46:22;;;;;;;;;;;15.00;57.70;;;;;;5074556;28;19924;-70
2023/01/15 00:48:48;;;;;;;;;;;15.00;57.70;;;;;;5074743;28;19924;-71
2023/01/15 00:51:14;;;;;;;;;;;15.00;57.60;;;;;;5074354;28;20038;-70
2023/01/15 00:53:39;;;;;;;;;;;14.90;57.60;;;;;;5075590;28;19968;-70
2023/01/15 00:56:05;;;;;;;;;;;15.00;57.60;;;;;;5108465;28;19978;-70
2023/01/15 00:58:30;;;;;;;;;;;14.90;57.50;;;;;;5074254;28;19924;-71
2023/01/15 01:00:59;;;;;;;;;;;15.00;57.60;;;;;;5075380;28;19920;-70
2023/01/15 01:03:25;;;;;;;;;;;14.90;57.60;;;;;;5075611;28;20314;-71
2023/01/15 01:05:51;;;;;;;;;;;14.90;57.50;;;;;;5075698;28;19924;-71
2023/01/15 01:08:16;;;;;;;;;;;14.90;57.50;;;;;;5077318;28;20288;-71
2023/01/15 01:10:42;;;;;;;;;;;14.90;57.50;;;;;;5095608;28;20319;-71
2023/01/15 01:13:08;;;;;;;;;;;14.90;57.50;;;;;;5095420;28;20007;-70
2023/01/15 01:15:34;;;;;;;;;;;14.90;57.50;;;;;;5086802;28;19993;-71
2023/01/15 01:18:03;;;;;;;;;;;14.90;57.40;;;;;;5097299;28;19920;-71
2023/01/15 01:20:29;;;;;;;;;;;14.90;57.40;;;;;;5097845;28;20248;-71
2023/01/15 01:22:57;;;;;;;;;;;14.90;57.40;;;;;;5115643;28;19930;-71
2023/01/15 01:25:23;;;;;;;;;;;14.90;58.10;;;;;;5080452;28;19919;-71
2023/01/15 01:27:52;;;;;;;;;;;14.90;57.40;;;;;;5115769;28;19927;-70
2023/01/15 01:30:17;;;;;;;;;;;14.90;57.40;;;;;;5115766;28;20353;-70
2023/01/15 01:32:43;;;;;;;;;;;14.90;57.30;;;;;;5097693;28;19955;-70
2023/01/15 01:35:09;;;;;;;;;;;14.90;57.40;;;;;;5115507;28;19919;-70
2023/01/15 01:37:35;;;;;;;;;;;14.80;57.30;;;;;;5097110;28;19919;-70
2023/01/15 01:40:04;;;;;;;;;;;14.90;57.30;;;;;;5131183;27;19949;-72
2023/01/15 01:42:29;;;;;;;;;;;15.00;57.40;;;;;;5115354;28;19927;-72
2023/01/15 01:45:04;;;;;;;;;;;14.90;57.40;;;;;;5115328;28;20317;-73
2023/01/15 01:47:33;;;;;;;;;;;14.90;57.40;;;;;;5097164;28;19923;-72
2023/01/15 01:50:01;;;;;;;;;;;14.90;57.40;;;;;;5115271;28;19920;-72
2023/01/15 01:52:31;;;;;;;;;;;14.90;57.40;;;;;;5096902;28;20003;-72
2023/01/15 01:54:57;;;;;;;;;;;15.00;57.30;;;;;;5115133;28;19927;-72
2023/01/15 01:57:23;;;;;;;;;;;14.80;57.20;;;;;;5096850;28;19920;-73
2023/01/15 01:59:49;;;;;;;;;;;14.90;57.30;;;;;;5115204;28;19942;-72
2023/01/15 02:02:15;;;;;;;;;;;14.90;57.20;;;;;;5115116;28;19920;-72
2023/01/15 02:04:40;;;;;;;;;;;14.80;57.90;;;;;;5114951;28;19928;-72
2023/01/15 02:07:06;;;;;;;;;;;14.80;57.10;;;;;;5106844;27;19931;-73
2023/01/15 02:09:32;;;;;;;;;;;14.80;57.10;;;;;;5106994;28;20011;-72
2023/01/15 02:12:02;;;;;;;;;;;14.80;57.10;;;;;;5073330;28;19920;-72
2023/01/15 02:14:37;;;;;;;;;;;14.80;57.10;;;;;;5106965;28;19921;-73
2023/01/15 02:20:06;;;;;;;;;;;14.80;57.00;;;;;;5110187;27;19912;-71
2023/01/15 02:25:18;;;;;;;;;;;14.80;57.00;;;;;;5110224;27;19912;-71
2023/01/15 02:27:51;;;;;;;;;;;14.80;57.00;;;;;;5109154;28;19927;-71
2023/01/15 02:30:23;;;;;;;;;;;14.80;57.00;;;;;;5109140;28;19920;-71
2023/01/15 02:32:51;;;;;;;;;;;14.80;57.00;;;;;;5108807;28;20386;-70
2023/01/15 02:35:20;;;;;;;;;;;14.80;57.10;;;;;;5109112;28;20367;-70
2023/01/15 02:37:48;;;;;;;;;;;14.80;57.00;;;;;;5108712;28;20395;-70
2023/01/15 02:40:15;;;;;;;;;;;14.80;57.00;;;;;;5108977;28;20182;-70
2023/01/15 02:42:42;;;;;;;;;;;14.80;57.00;;;;;;5109951;28;20343;-70
2023/01/15 02:45:09;;;;;;;;;;;14.80;57.00;;;;;;5108599;28;19924;-70
2023/01/15 02:47:37;;;;;;;;;;;14.70;56.90;;;;;;5109087;28;19931;-71
2023/01/15 02:50:05;;;;;;;;;;;14.70;57.00;;;;;;5109786;28;19927;-71
2023/01/15 02:52:33;;;;;;;;;;;14.70;56.90;;;;;;5108841;28;19947;-71
2023/01/15 02:55:02;;;;;;;;;;;14.70;56.90;;;;;;5108364;28;20016;-70
2023/01/15 02:57:29;;;;;;;;;;;14.80;56.90;;;;;;5109774;28;20363;-71
2023/01/15 02:59:59;;;;;;;;;;;14.80;56.90;;;;;;5108650;28;19920;-70
2023/01/15 03:02:26;;;;;;;;;;;14.60;56.80;;;;;;5108614;28;20333;-71
2023/01/15 03:04:58;;;;;;;;;;;14.70;56.90;;;;;;5142711;27;19924;-70
2023/01/15 03:07:30;;;;;;;;;;;14.70;56.80;;;;;;5110007;28;20322;-71
2023/01/15 03:09:56;;;;;;;;;;;14.70;56.80;;;;;;5108483;28;20342;-71
2023/01/15 03:12:32;;;;;;;;;;;14.70;56.80;;;;;;5108042;28;19920;-71
2023/01/15 03:15:04;;;;;;;;;;;14.70;56.80;;;;;;5108037;28;20361;-71
2023/01/15 03:17:35;;;;;;;;;;;14.70;56.90;;;;;;5107977;28;19924;-72
2023/01/15 03:20:07;;;;;;;;;;;14.70;56.80;;;;;;5108350;28;19920;-71
2023/01/15 03:22:34;;;;;;;;;;;14.70;56.80;;;;;;5107504;28;19920;-71
2023/01/15 03:27:39;;;;;;;;;;;14.70;56.80;;;;;;5110166;27;20396;-71
2023/01/15 03:30:08;;;;;;;;;;;14.70;56.80;;;;;;5109354;28;20011;-71
2023/01/15 03:32:34;;;;;;;;;;;14.70;56.80;;;;;;5109094;28;19920;-71
2023/01/15 03:35:02;;;;;;;;;;;14.70;56.80;;;;;;5108929;28;19985;-70
2023/01/15 03:37:28;;;;;;;;;;;14.70;56.80;;;;;;5108628;28;19920;-70
2023/01/15 03:39:55;;;;;;;;;;;14.70;56.80;;;;;;5108822;28;19920;-70
2023/01/15 03:45:19;;;;;;;;;;;14.70;56.80;;;;;;5130808;27;20124;-71
2023/01/15 03:47:49;;;;;;;;;;;14.70;56.80;;;;;;5129534;28;20389;-71
2023/01/15 03:50:21;;;;;;;;;;;14.60;56.70;;;;;;5129631;28;19924;-71
2023/01/15 03:52:51;;;;;;;;;;;14.70;56.70;;;;;;5129434;28;19970;-71
2023/01/15 03:55:26;;;;;;;;;;;14.70;56.70;;;;;;5129503;28;19924;-71
2023/01/15 04:00:29;;;;;;;;;;;14.70;56.60;;;;;;5074849;27;3339280;-71
2023/01/15 04:02:56;;;;;;;;;;;14.60;56.60;;;;;;5193142;27;20341;-70
2023/01/15 04:05:22;;;;;;;;;;;14.70;56.70;;;;;;5174771;27;19991;-71
2023/01/15 04:07:48;;;;;;;;;;;14.70;56.70;;;;;;5174339;27;20406;-71
2023/01/15 04:10:14;;;;;;;;;;;14.60;56.60;;;;;;5174694;27;19941;-71
2023/01/15 04:12:40;;;;;;;;;;;14.70;56.60;;;;;;5174399;27;19922;-71
2023/01/15 04:15:06;;;;;;;;;;;14.60;56.60;;;;;;5174268;27;20333;-71
2023/01/15 04:17:31;;;;;;;;;;;14.70;56.60;;;;;;5174117;27;19929;-71
2023/01/15 04:19:57;;;;;;;;;;;14.70;56.60;;;;;;5174024;27;19947;-71
2023/01/15 04:22:22;;;;;;;;;;;14.70;56.60;;;;;;5193283;27;19922;-71
2023/01/15 04:24:48;;;;;;;;;;;14.60;56.60;;;;;;5173914;27;19919;-70
2023/01/15 04:27:16;;;;;;;;;;;14.60;56.50;;;;;;5192817;27;19926;-71
2023/01/15 04:29:42;;;;;;;;;;;14.60;56.60;;;;;;5174231;27;19919;-71
2023/01/15 04:32:07;;;;;;;;;;;14.60;56.50;;;;;;5173365;27;19919;-71
2023/01/15 04:34:34;;;;;;;;;;;14.60;56.60;;;;;;5171479;27;19919;-70
2023/01/15 04:37:00;;;;;;;;;;;14.60;56.50;;;;;;5171712;27;19927;-70
2023/01/15 04:39:25;;;;;;;;;;;14.60;56.50;;;;;;5152767;27;19923;-71
2023/01/15 04:44:37;;;;;;;;;;;14.60;56.50;;;;;;5152526;27;19919;-71
2023/01/15 04:47:03;;;;;;;;;;;14.60;56.50;;;;;;5171732;27;19967;-71
2023/01/15 04:49:28;;;;;;;;;;;14.60;56.50;;;;;;5152916;27;19923;-71
2023/01/15 04:51:54;;;;;;;;;;;14.60;56.50;;;;;;5171453;27;20300;-71
2023/01/15 04:54:21;;;;;;;;;;;14.60;56.40;;;;;;5171192;27;19928;-70
2023/01/15 04:56:49;;;;;;;;;;;14.60;56.40;;;;;;5152984;27;19926;-70
2023/01/15 04:59:15;;;;;;;;;;;14.60;56.40;;;;;;5152171;27;19930;-70
2023/01/15 05:01:40;;;;;;;;;;;14.60;56.40;;;;;;5152443;27;19930;-70
2023/01/15 05:04:06;;;;;;;;;;;14.60;56.40;;;;;;5152364;27;19919;-70
2023/01/15 05:06:32;;;;;;;;;;;14.60;56.40;;;;;;5171156;27;19919;-71
2023/01/15 05:08:58;;;;;;;;;;;14.60;56.40;;;;;;5152316;27;19954;-71
2023/01/15 05:11:24;;;;;;;;;;;14.60;56.30;;;;;;5141160;27;19919;-71
2023/01/15 05:13:50;;;;;;;;;;;14.60;56.30;;;;;;5156987;27;20334;-71
2023/01/15 05:16:17;;;;;;;;;;;14.60;56.30;;;;;;5138453;27;19919;-71
2023/01/15 05:18:44;;;;;;;;;;;14.50;56.20;;;;;;5137853;27;19923;-72
2023/01/15 05:21:15;;;;;;;;;;;14.50;56.30;;;;;;5138418;27;20135;-71
2023/01/15 05:23:41;;;;;;;;;;;14.50;56.30;;;;;;5138386;27;20381;-71
2023/01/15 05:26:06;;;;;;;;;;;14.50;56.20;;;;;;5138174;27;19926;-70
2023/01/15 05:28:32;;;;;;;;;;;14.50;56.20;;;;;;5156735;27;19975;-71
2023/01/15 05:30:57;;;;;;;;;;;14.50;56.20;;;;;;5137978;27;19926;-71
2023/01/15 05:33:23;;;;;;;;;;;14.50;56.20;;;;;;5138048;27;19919;-70
2023/01/15 05:35:48;;;;;;;;;;;14.50;56.20;;;;;;5138044;27;19919;-70
2023/01/15 05:38:14;;;;;;;;;;;14.50;56.20;;;;;;5156347;27;19925;-70
2023/01/15 05:40:39;;;;;;;;;;;14.50;56.10;;;;;;5156408;27;20014;-71
2023/01/15 05:43:05;;;;;;;;;;;14.50;56.10;;;;;;5137886;27;19926;-71
2023/01/15 05:45:33;;;;;;;;;;;14.50;56.10;;;;;;5138006;27;19920;-71
2023/01/15 05:47:58;;;;;;;;;;;14.50;56.00;;;;;;5156535;27;19919;-71
2023/01/15 05:50:24;;;;;;;;;;;14.50;56.00;;;;;;5156428;27;20262;-71
2023/01/15 05:52:49;;;;;;;;;;;14.50;55.80;;;;;;5156466;27;20005;-70
2023/01/15 05:55:18;;;;;;;;;;;14.50;55.80;;;;;;5138129;27;20334;-70
2023/01/15 05:57:43;;;;;;;;;;;14.50;55.70;;;;;;5156085;27;19920;-70
2023/01/15 06:00:09;;;;;;;;;;;14.50;55.70;;;;;;5136963;27;19934;-70
2023/01/15 06:02:35;;;;;;;;;;;14.50;55.80;;;;;;5137647;27;19925;-70
2023/01/15 06:05:00;;;;;;;;;;;14.50;55.80;;;;;;5137446;27;19966;-70
2023/01/15 06:07:29;;;;;;;;;;;14.50;56.50;;;;;;5156087;27;19919;-71
2023/01/15 06:09:54;;;;;;;;;;;14.40;55.70;;;;;;5137316;27;19919;-71
2023/01/15 06:12:20;;;;;;;;;;;14.50;55.80;;;;;;5137183;27;19949;-71
2023/01/15 06:14:45;;;;;;;;;;;14.50;55.80;;;;;;5155812;27;19919;-70
2023/01/15 06:17:11;;;;;;;;;;;14.50;55.70;;;;;;5137421;27;19968;-71
2023/01/15 06:19:36;;;;;;;;;;;14.50;55.70;;;;;;5136451;27;19946;-71
2023/01/15 06:22:02;;;;;;;;;;;14.50;55.70;;;;;;5154566;27;20301;-71
2023/01/15 06:24:31;;;;;;;;;;;14.50;55.70;;;;;;5155617;27;19972;-71
2023/01/15 06:26:56;;;;;;;;;;;14.40;55.70;;;;;;5136875;27;19926;-70
2023/01/15 06:29:22;;;;;;;;;;;14.50;55.70;;;;;;5137324;27;20009;-71
2023/01/15 06:31:48;;;;;;;;;;;14.40;55.70;;;;;;5155667;27;20406;-71
2023/01/15 06:34:13;;;;;;;;;;;14.50;55.70;;;;;;5155700;27;19979;-70
2023/01/15 06:36:39;;;;;;;;;;;14.40;55.70;;;;;;5155375;27;19919;-70
2023/01/15 06:39:04;;;;;;;;;;;14.40;55.60;;;;;;5136695;27;19923;-70
2023/01/15 06:47:20;;;;;;;;;;;14.40;55.70;;;;;;5136375;27;20064;-71
2023/01/15 06:49:46;;;;;;;;;;;14.40;55.60;;;;;;5155208;27;19963;-71
2023/01/15 06:52:12;;;;;;;;;;;14.40;55.60;;;;;;5136517;27;19927;-70
2023/01/15 06:54:37;;;;;;;;;;;14.40;55.60;;;;;;5136731;27;19925;-70
2023/01/15 06:57:03;;;;;;;;;;;14.40;55.60;;;;;;5154892;27;19919;-70
2023/01/15 06:59:29;;;;;;;;;;;14.50;55.60;;;;;;5154752;27;20286;-71
2023/01/15 07:01:55;;;;;;;;;;;14.40;55.50;;;;;;5136417;27;20258;-71
2023/01/15 07:04:20;;;;;;;;;;;14.40;55.60;;;;;;5154830;27;19972;-70
2023/01/15 07:06:46;;;;;;;;;;;14.40;55.50;;;;;;5154860;27;19919;-70
2023/01/15 07:09:11;;;;;;;;;;;14.40;55.50;;;;;;5136281;27;19962;-71
2023/01/15 07:11:48;;;;;;;;;;;14.40;55.50;;;;;;5136481;27;19970;-70
2023/01/15 07:14:15;;;;;;;;;;;14.40;55.60;;;;;;5154792;27;19977;-71
2023/01/15 07:16:41;;;;;;;;;;;14.30;55.50;;;;;;5136404;27;20315;-71
2023/01/15 07:19:06;;;;;;;;;;;14.40;55.50;;;;;;5136025;27;19948;-71
2023/01/15 07:21:32;;;;;;;;;;;14.40;55.50;;;;;;5135988;27;19944;-71
2023/01/15 07:23:58;;;;;;;;;;;14.40;55.50;;;;;;5154478;27;19926;-70
2023/01/15 07:26:24;;;;;;;;;;;14.40;55.50;;;;;;5153735;27;19925;-71
2023/01/15 07:28:49;;;;;;;;;;;14.40;55.50;;;;;;5135899;27;20002;-70
2023/01/15 07:31:15;;;;;;;;;;;14.40;55.50;;;;;;5136130;27;19923;-70
2023/01/15 07:33:40;;;;;;;;;;;14.30;55.50;;;;;;5154048;27;19919;-70
2023/01/15 07:36:09;;;;;;;;;;;14.30;55.50;;;;;;5135673;27;20045;-70
2023/01/15 07:38:35;;;;;;;;;;;14.30;55.40;;;;;;5135657;27;19923;-70
2023/01/15 07:49:48;;;;;;;;;;;14.30;55.40;;;;;;5153876;27;19923;-70
2023/01/15 07:52:05;;;;;;;;;;;14.30;55.40;;;;;;5135671;27;19934;-70
2023/01/15 07:54:30;;;;;;;;;;;14.30;55.40;;;;;;5154066;27;20293;-71
2023/01/15 07:56:56;;;;;;;;;;;14.30;55.40;;;;;;5135550;27;19919;-70
2023/01/15 07:59:25;;;;;;;;;;;14.30;55.40;;;;;;5135290;27;19923;-70
2023/01/15 08:01:50;;;;;;;;;;;14.40;55.50;;;;;;5135714;27;19923;-70
2023/01/15 08:04:16;;;;;;;;;;;14.30;55.50;;;;;;5153973;27;20457;-70
2023/01/15 08:06:41;;;;;;;;;;;14.30;55.40;;;;;;5135555;27;20010;-70
2023/01/15 08:09:07;;;;;;;;;;;14.30;55.40;;;;;;5135723;27;20002;-71
2023/01/15 08:17:06;;;;;;;;;;;14.20;55.30;;;;;;5135328;27;19976;-70
2023/01/15 08:19:32;;;;;;;;;;;14.20;55.30;;;;;;5135178;27;19923;-71
2023/01/15 08:21:59;;;;;;;;;;;14.30;55.30;;;;;;5153812;27;19920;-71
2023/01/15 08:24:24;;;;;;;;;;;14.20;55.30;;;;;;5135511;27;19919;-71
2023/01/15 08:26:50;;;;;;;;;;;14.20;55.20;;;;;;5153758;27;19948;-70
2023/01/15 08:29:16;;;;;;;;;;;14.20;55.20;;;;;;5135462;27;19923;-70
2023/01/15 08:31:41;;;;;;;;;;;14.20;55.20;;;;;;5153700;27;20335;-70
2023/01/15 08:34:07;;;;;;;;;;;14.20;55.10;;;;;;5155802;27;19919;-70
2023/01/15 08:36:33;;;;;;;;;;;14.20;55.20;;;;;;5155971;27;19998;-70
2023/01/15 08:38:58;;;;;;;;;;;14.20;55.20;;;;;;5155834;27;20017;-70
2023/01/15 08:41:24;;;;;;;;;;;14.20;55.10;;;;;;5155823;27;19997;-71
2023/01/15 08:43:49;;;;;;;;;;;14.10;55.00;;;;;;5155854;27;20051;-73
2023/01/15 08:46:18;;;;;;;;;;;14.20;55.10;;;;;;5158150;27;19919;-72
2023/01/15 08:48:43;;;;;;;;;;;14.20;55.00;;;;;;5159749;27;19934;-72
2023/01/15 08:51:10;;;;;;;;;;;14.20;55.00;;;;;;5159959;27;19919;-73
2023/01/15 08:53:36;;;;;;;;;;;14.20;55.00;;;;;;5159594;27;20386;-73
2023/01/15 08:56:10;;;;;;;;;;;14.20;55.00;;;;;;5178298;27;19966;-72
2023/01/15 08:58:35;;;;;;;;;;;14.20;54.90;;;;;;5159474;27;20235;-73
2023/01/15 09:01:04;;;;;;;;;;;14.20;54.80;;;;;;5159432;27;20506;-72
2023/01/15 09:03:30;;;;;;;;;;;14.20;54.70;;;;;;5178342;27;19938;-72
2023/01/15 09:05:59;;;;;;;;;;;14.20;54.70;;;;;;5159386;27;19988;-72
2023/01/15 09:08:25;;;;;;;;;;;14.20;54.70;;;;;;5159640;27;19918;-72
2023/01/15 09:10:58;;;;;;;;;;;14.20;54.70;;;;;;5178093;27;19918;-73
2023/01/15 09:13:23;;;;;;;;;;;14.10;54.60;;;;;;5159102;27;19925;-72
2023/01/15 09:15:52;;;;;;;;;;;14.20;54.70;;;;;;5152509;27;19919;-72
2023/01/15 09:18:19;;;;;;;;;;;14.20;54.70;;;;;;5138240;27;20088;-73
2023/01/15 09:20:45;;;;;;;;;;;14.10;54.60;;;;;;5138653;27;20009;-73
2023/01/15 09:23:10;;;;;;;;;;;14.20;54.70;;;;;;5138371;27;20421;-73
2023/01/15 09:25:36;;;;;;;;;;;14.20;54.70;;;;;;5138185;27;19967;-73
2023/01/15 09:28:01;;;;;;;;;;;14.10;54.80;;;;;;5156701;27;19923;-72
2023/01/15 09:30:30;;;;;;;;;;;14.10;54.80;;;;;;5138379;27;19923;-73
2023/01/15 09:32:55;;;;;;;;;;;14.10;54.90;;;;;;5121188;27;20001;-72
2023/01/15 09:35:21;;;;;;;;;;;14.10;54.90;;;;;;5138066;27;19965;-72
2023/01/15 09:37:54;;;;;;;;;;;14.10;55.00;;;;;;5155652;27;19922;-72
2023/01/15 09:40:28;;;;;;;;;;;14.00;54.90;;;;;;5137883;27;20373;-72
2023/01/15 09:42:59;;;;;;;;;;;14.10;55.00;;;;;;5137900;27;19919;-73
2023/01/15 09:45:29;;;;;;;;;;;14.10;55.00;;;;;;5156589;27;19919;-72
2023/01/15 09:48:14;;;;;;;;;;;14.10;55.00;;;;;;5156664;27;19919;-72
2023/01/15 09:56:22;;;;;;;;;;;14.10;54.80;;;;;;5110428;27;19942;-70
2023/01/15 09:58:48;;;;;;;;;;;14.10;54.90;;;;;;5108948;28;19967;-70
2023/01/15 10:01:17;;;;;;;;;;;14.10;54.90;;;;;;5109295;28;19958;-70
2023/01/15 10:03:45;;;;;;;;;;;14.10;55.00;;;;;;5109204;28;19920;-69
2023/01/15 10:09:05;;;;;;;;;;;14.00;54.90;;;;;;5109565;27;20282;-70
2023/01/15 10:14:31;;;;;;;;;;;14.10;55.10;;;;;;5108650;28;20026;-69
2023/01/15 10:16:56;;;;;;;;;;;14.10;55.00;;;;;;5108903;28;19927;-70
2023/01/15 10:19:22;;;;;;;;;;;14.10;55.10;;;;;;5108756;28;19920;-70
2023/01/15 10:24:47;;;;;;;;;;;14.10;55.00;;;;;;5110270;27;19916;-70
2023/01/15 10:27:17;;;;;;;;;;;14.00;54.90;;;;;;5109730;28;20289;-70
2023/01/15 10:29:45;;;;;;;;;;;14.10;54.90;;;;;;5109139;28;20349;-70
2023/01/15 10:35:21;;;;;;;;;;;14.10;54.90;;;;;;5110231;27;19919;-70
2023/01/15 10:40:32;;;;;;;;;;;14.10;54.80;;;;;;5110235;27;19919;-71
2023/01/15 10:43:04;;;;;;;;;;;14.10;54.80;;;;;;5108968;28;19919;-70
2023/01/15 10:45:32;;;;;;;;;;;14.10;54.80;;;;;;5108873;28;20454;-69
2023/01/15 10:48:20;;;;;;;;;;;14.10;54.80;;;;;;5108879;28;19920;-70
2023/01/15 10:50:47;;;;;;;;;;;14.20;54.90;;;;;;5108589;28;19927;-70
2023/01/15 10:53:20;;;;;;;;;;;14.10;54.90;;;;;;5109142;28;19920;-70
2023/01/15 10:55:48;;;;;;;;;;;14.10;54.90;;;;;;5108929;28;19978;-70
2023/01/15 11:00:58;;;;;;;;;;;14.10;54.90;;;;;;5110303;27;19919;-70
2023/01/15 11:03:34;;;;;;;;;;;14.10;54.90;;;;;;5109293;28;19920;-70
2023/01/15 11:06:00;;;;;;;;;;;14.10;55.00;;;;;;5108883;28;19920;-70
2023/01/15 11:08:28;;;;;;;;;;;14.10;54.90;;;;;;5109323;28;19920;-70
2023/01/15 11:10:54;;;;;;;;;;;14.10;54.90;;;;;;5109231;28;19920;-70
2023/01/15 11:21:46;;;;;;;;;;;14.10;54.90;;;;;;5108450;28;20389;-71
2023/01/15 11:24:13;;;;;;;;;;;14.10;54.80;;;;;;5109002;28;19928;-70
2023/01/15 11:26:39;;;;;;;;;;;14.10;54.90;;;;;;5107708;28;19924;-70
2023/01/15 11:29:24;;;;;;;;;;;14.10;54.90;;;;;;5109952;28;20019;-70
2023/01/15 11:31:50;;;;;;;;;;;14.10;54.90;;;;;;5109317;28;19927;-70
2023/01/15 11:34:20;;;;;;;;;;;14.10;54.90;;;;;;5110129;28;20022;-69
2023/01/15 11:36:45;;;;;;;;;;;14.10;54.90;;;;;;5108319;28;19924;-70
2023/01/15 11:39:27;;;;;;;;;;;14.10;54.80;;;;;;5108210;28;20019;-70
2023/01/15 11:50:51;;;;;;;;;;;14.10;54.80;;;;;;5088612;28;19946;-70
2023/01/15 11:53:07;;;;;;;;;;;14.10;54.70;;;;;;5089566;28;19920;-70
2023/01/15 11:55:33;;;;;;;;;;;14.20;54.80;;;;;;5088796;28;20006;-70
2023/01/15 11:58:00;;;;;;;;;;;14.10;54.70;;;;;;5088708;28;20359;-70
2023/01/15 12:00:28;;;;;;;;;;;14.10;54.70;;;;;;5088418;28;20341;-70
2023/01/15 12:02:59;;;;;;;;;;;14.10;54.70;;;;;;5088413;28;19990;-70
2023/01/15 12:05:27;;;;;;;;;;;14.10;54.80;;;;;;5088625;28;19951;-70
2023/01/15 12:07:54;;;;;;;;;;;14.10;54.70;;;;;;5088127;28;20341;-70
2023/01/15 12:11:02;;;;;;;;;;;14.10;54.60;;;;;;5088488;28;20385;-70
2023/01/15 12:13:13;;;;;;;;;;;14.20;54.70;;;;;;5087900;28;19974;-69
2023/01/15 12:18:43;;;;;;;;;;;14.10;54.60;;;;;;5110362;27;19918;-70
2023/01/15 12:21:28;;;;;;;;;;;14.20;54.60;;;;;;5108840;28;19962;-70
2023/01/15 12:24:02;;;;;;;;;;;14.10;54.60;;;;;;5109013;28;19924;-70
2023/01/15 12:26:30;;;;;;;;;;;14.10;54.60;;;;;;5109194;28;19920;-70
2023/01/15 12:29:02;;;;;;;;;;;14.10;54.60;;;;;;5108903;28;19923;-69
2023/01/15 12:31:32;;;;;;;;;;;14.10;54.60;;;;;;5108786;28;19920;-69
2023/01/15 12:39:28;;;;;;;;;;;14.20;54.60;;;;;;5127365;27;1870152;-70
2023/01/15 12:45:03;;;;;;;;;;;14.10;54.60;;;;;;5174547;27;19918;-69
2023/01/15 12:47:49;;;;;;;;;;;14.10;54.60;;;;;;5193498;27;19925;-70
2023/01/15 12:50:35;;;;;;;;;;;14.10;54.60;;;;;;5153136;27;19971;-69
2023/01/15 12:53:10;;;;;;;;;;;14.10;54.60;;;;;;5153632;27;19923;-69
2023/01/15 12:55:39;;;;;;;;;;;14.20;54.70;;;;;;5171948;27;19926;-69
2023/01/15 12:58:10;;;;;;;;;;;14.10;54.60;;;;;;5171748;27;20278;-69
2023/01/15 13:00:40;;;;;;;;;;;14.10;54.60;;;;;;5153541;27;20344;-70
2023/01/15 13:03:25;;;;;;;;;;;14.10;54.60;;;;;;5172027;27;19926;-69
2023/01/15 13:05:52;;;;;;;;;;;14.10;54.60;;;;;;5152780;27;19918;-69
2023/01/15 13:11:02;;;;;;;;;;;14.10;54.60;;;;;;5130737;27;19915;-69
2023/01/15 13:13:29;;;;;;;;;;;14.00;54.60;;;;;;5129452;28;20370;-70
2023/01/15 13:16:01;;;;;;;;;;;14.10;54.60;;;;;;5129369;28;19920;-70
2023/01/15 13:18:35;;;;;;;;;;;14.10;54.60;;;;;;5112586;28;19924;-70
2023/01/15 13:21:07;;;;;;;;;;;14.10;54.70;;;;;;5130658;27;19919;-71
2023/01/15 13:23:43;;;;;;;;;;;14.10;54.70;;;;;;5129561;28;19945;-70
2023/01/15 13:28:56;;;;;;;;;;;14.10;54.80;;;;;;5110294;27;19918;-70
2023/01/15 13:34:12;;;;;;;;;;;14.10;54.70;;;;;;5127479;27;1865511;-72
2023/01/15 13:36:40;;;;;;;;;;;14.10;54.70;;;;;;5193254;27;19918;-72
2023/01/15 13:39:14;;;;;;;;;;;14.10;54.70;;;;;;5174480;27;19919;-73
2023/01/15 13:44:30;;;;;;;;;;;14.10;54.60;;;;;;5174018;27;19918;-73
2023/01/15 13:47:00;;;;;;;;;;;14.10;54.60;;;;;;5174530;27;19919;-73
2023/01/15 13:49:30;;;;;;;;;;;14.10;54.70;;;;;;5156889;27;19929;-72
2023/01/15 13:52:02;;;;;;;;;;;14.10;54.70;;;;;;5174574;27;20021;-72
2023/01/15 13:54:29;;;;;;;;;;;14.10;54.80;;;;;;5193091;27;19923;-72
2023/01/15 13:57:05;;;;;;;;;;;14.10;54.70;;;;;;5173915;27;19922;-72
2023/01/15 13:59:47;;;;;;;;;;;14.10;54.60;;;;;;5174021;27;19966;-72
2023/01/15 14:02:29;;;;;;;;;;;14.10;54.60;;;;;;5174115;27;19962;-72
2023/01/15 14:04:55;;;;;;;;;;;14.10;54.60;;;;;;5174179;27;20411;-73
2023/01/15 14:07:30;;;;;;;;;;;14.10;54.60;;;;;;5164592;27;20278;-72
2023/01/15 14:10:16;;;;;;;;;;;14.10;54.60;;;;;;5132657;27;19944;-73
2023/01/15 14:15:41;;;;;;;;;;;14.10;54.60;;;;;;5110509;27;20400;-71
2023/01/15 14:18:26;;;;;;;;;;;14.00;54.60;;;;;;5108430;28;19977;-71
2023/01/15 14:21:09;;;;;;;;;;;14.10;54.60;;;;;;5108808;28;19927;-71
2023/01/15 14:29:43;;;;;;;;;;;14.20;54.70;;;;;;5130724;27;19997;-72
2023/01/15 14:34:55;;;;;;;;;;;14.10;54.70;;;;;;5063815;27;1873651;-71
2023/01/15 14:37:23;;;;;;;;;;;14.00;54.70;;;;;;5112169;28;19920;-71
2023/01/15 14:43:04;;;;;;;;;;;14.00;54.80;;;;;;5127581;27;1864291;-71
2023/01/15 14:45:24;;;;;;;;;;;13.90;54.80;;;;;;5192928;27;19919;-70
2023/01/15 14:47:51;;;;;;;;;;;14.00;54.90;;;;;;5174740;27;19969;-71
2023/01/15 14:56:00;;;;;;;;;;;13.90;54.80;;;;;;5110665;27;19912;-70
2023/01/15 15:01:41;;;;;;;;;;;13.90;54.90;;;;;;5110305;27;19918;-70
2023/01/15 15:04:20;;;;;;;;;;;13.90;55.70;;;;;;5108857;28;19924;-70
2023/01/15 15:06:48;;;;;;;;;;;13.90;55.10;;;;;;5108963;28;19920;-70
2023/01/15 15:09:20;;;;;;;;;;;13.90;55.00;;;;;;5110285;28;19927;-70
2023/01/15 15:12:18;;;;;;;;;;;13.90;55.10;;;;;;5110256;28;19920;-70
2023/01/15 15:14:35;;;;;;;;;;;13.90;55.10;;;;;;5108875;28;20274;-70
2023/01/15 15:17:03;;;;;;;;;;;13.90;55.10;;;;;;5109031;28;19932;-70
2023/01/15 15:19:33;;;;;;;;;;;13.90;55.10;;;;;;5109845;28;19931;-71
2023/01/15 15:22:02;;;;;;;;;;;13.90;55.20;;;;;;5110368;28;19920;-70
2023/01/15 15:24:31;;;;;;;;;;;13.90;55.20;;;;;;5108846;28;19920;-70
2023/01/15 15:27:07;;;;;;;;;;;13.90;55.10;;;;;;5108556;28;19969;-69
2023/01/15 15:29:32;;;;;;;;;;;14.10;55.30;;;;;;5108725;28;20506;-70
2023/01/15 15:32:00;;;;;;;;;;;14.70;54.60;;;;;;5108741;28;19920;-70
2023/01/15 15:37:23;;;;;;;;;;;16.40;51.90;;;;;;5130734;27;19912;-70
2023/01/15 15:39:52;;;;;;;;;;;17.50;48.40;;;;;;5129710;28;20065;-69
2023/01/15 15:50:40;;;;;;;;;;;21.20;40.90;;;;;;5108568;28;20435;-70
2023/01/15 15:53:15;;;;;;;;;;;21.80;39.80;;;;;;5108949;28;19924;-70
2023/01/15 15:55:42;;;;;;;;;;;22.20;40.00;;;;;;5108791;28;19965;-70
2023/01/15 15:58:10;;;;;;;;;;;22.60;38.40;;;;;;5108778;28;19920;-70
2023/01/15 16:00:40;;;;;;;;;;;22.80;38.00;;;;;;5109945;28;20011;-70
2023/01/15 16:03:07;;;;;;;;;;;22.90;37.90;;;;;;5108610;28;19924;-70
2023/01/15 16:05:33;;;;;;;;;;;22.90;37.80;;;;;;5109931;28;20278;-70
2023/01/15 16:10:56;;;;;;;;;;;22.70;38.10;;;;;;5110682;27;20175;-70
2023/01/15 16:13:25;;;;;;;;;;;22.50;38.30;;;;;;5109282;28;19927;-70
2023/01/15 16:15:53;;;;;;;;;;;22.40;38.50;;;;;;5108972;28;19924;-70
2023/01/15 16:18:30;;;;;;;;;;;22.10;38.80;;;;;;5110031;28;19922;-71
2023/01/15 16:20:59;;;;;;;;;;;21.90;39.20;;;;;;5109162;28;19926;-71
2023/01/15 16:23:25;;;;;;;;;;;21.60;39.60;;;;;;5108766;28;19995;-71
2023/01/15 16:25:56;;;;;;;;;;;21.40;40.00;;;;;;5110032;28;19920;-71
2023/01/15 16:28:23;;;;;;;;;;;21.20;40.40;;;;;;5108908;28;20274;-71
2023/01/15 16:30:56;;;;;;;;;;;20.90;40.70;;;;;;5110148;28;20332;-70
2023/01/15 16:33:22;;;;;;;;;;;20.70;41.10;;;;;;5108466;28;19920;-70
2023/01/15 16:35:54;;;;;;;;;;;20.40;41.60;;;;;;5109790;28;19943;-69
2023/01/15 16:38:19;;;;;;;;;;;20.20;41.90;;;;;;5109770;28;19958;-70
2023/01/15 16:40:45;;;;;;;;;;;20.00;42.40;;;;;;5108439;28;19978;-70
2023/01/15 16:48:45;;;;;;;;;;;19.30;43.50;;;;;;5109546;27;19918;-70
2023/01/15 16:54:26;;;;;;;;;;;18.90;44.00;;;;;;5127154;27;1877040;-70